AVENSA Virtual | VAN

AVENSA Virtual! La aerolinea de Venezuela



 METAR AND TAF INFORMATION
METAR FOR SVSA
ADDS - METARS form results

(0413 UTC 29 February 2020)
Data provider http://aviationweather.gov/metar/data/
 
Forecast for: SVSA (SAN ANTONIO TACH, VE)
Text: TAF SVSA 290400Z 2906/0106 00000KT 9999 SCT020 TX31/19Z TN23/09Z
Forecast period: 0600 UTC 29 February 2020 to 0600 UTC 01 March 2020
Forecast type: FROM: standard forecast or significant change
Winds: calm
Visibility: 6 or more miles 10+ km)
Ceiling: at least 12,000 feet AGL
Clouds: scattered clouds at 2000 feet AGL
Weather: no significant weather forecast for this period
Text: BECMG 2906/2910 9000 DZ BKN020
Forecast period: 0600 UTC 29 February 2020 to 0600 UTC 01 March 2020
Forecast type: BECOMING: Conditions expected to become as follows by 1000 UTC 29 February 2020
Winds: calm
Visibility: 6 miles (9 km)
Ceiling: 2000 feet AGL
Clouds: broken clouds at 2000 feet AGL
Weather: DZ  (moderate drizzle)

 AIRPORT MAP

 RUNWAY INFORMATION
Runway 17 Runway length 6135 ft Runway width 131 ft
Runway elevation 0 ft Runway displaced threshold 0 ft Runway heading 166
Runway 35 Runway length 6135 ft Runway width 131 ft
Runway elevation 0 ft Runway displaced threshold 0 ft Runway heading 346

 AIRPORT FREQUENCIES
Type GND Name GND Frequency 121.9 MHZ
Type TWR Name TWR Frequency 118.5 MHZ

 AIRPORT NEAR NAVIGATION AIDS